Time;durP1;ratioP1;P1;durP2;ratioP2;P2;SDS_P1;SDS_P2;PMS_P1;PMS_P2;Temp;Humidity;BMP_temperature;BMP_pressure;BME280_temperature;BME280_humidity;BME280_pressure;Samples;Min_cycle;Max_cycle;Signal;HPM_P1;HPM_P2
2021/09/25 00:01:41;;;;;;;8.73;8.10;;;;;;;16.96;65.58;100116.19;4884920;28;98565;-83
2021/09/25 00:04:07;;;;;;;8.85;8.05;;;;;;;16.92;65.82;100117.31;4862373;28;97344;-83
2021/09/25 00:06:33;;;;;;;9.00;8.05;;;;;;;16.93;65.46;100108.44;4878968;28;96932;-83
2021/09/25 00:08:58;;;;;;;9.30;8.50;;;;;;;16.93;65.34;100108.44;4893596;28;99109;-84
2021/09/25 00:11:26;;;;;;;9.45;8.55;;;;;;;16.82;66.00;100106.44;4878657;28;97993;-84
2021/09/25 00:13:52;;;;;;;9.50;8.15;;;;;;;16.82;65.91;100109.09;4861852;28;96860;-84
2021/09/25 00:16:18;;;;;;;11.50;8.73;;;;;;;16.96;65.68;100106.44;4862847;28;96940;-83
2021/09/25 00:18:43;;;;;;;9.07;8.10;;;;;;;16.87;65.76;100095.53;4874506;28;101499;-83
2021/09/25 00:21:09;;;;;;;10.45;8.93;;;;;;;16.86;65.78;100093.84;4893842;28;98290;-84
2021/09/25 00:23:34;;;;;;;10.15;9.15;;;;;;;16.80;66.45;100103.03;4878123;28;96874;-84
2021/09/25 00:26:00;;;;;;;8.82;7.93;;;;;;;16.83;66.09;100096.69;4862368;28;96699;-84
2021/09/25 00:28:25;;;;;;;8.60;7.80;;;;;;;16.85;65.82;100090.34;4894064;28;98094;-84
2021/09/25 00:30:54;;;;;;;9.38;8.50;;;;;;;16.92;65.83;100093.44;4862637;28;100485;-84
2021/09/25 00:33:19;;;;;;;10.07;9.18;;;;;;;16.90;66.17;100088.25;4877455;28;96800;-84
2021/09/25 00:35:45;;;;;;;9.95;9.00;;;;;;;16.93;66.10;100096.03;4878847;28;96652;-83
2021/09/25 00:38:11;;;;;;;9.82;8.77;;;;;;;16.84;66.50;100093.97;4877507;28;101385;-84
2021/09/25 00:40:36;;;;;;;9.90;9.00;;;;;;;17.01;65.93;100095.50;4863252;28;101529;-83
2021/09/25 00:43:02;;;;;;;9.23;8.30;;;;;;;16.86;66.31;100093.84;4871654;28;97454;-84
2021/09/25 00:45:28;;;;;;;9.85;9.02;;;;;;;16.81;66.57;100086.16;4862580;28;96899;-83
2021/09/25 00:47:54;;;;;;;10.27;9.02;;;;;;;16.95;66.24;100094.09;4862381;28;101553;-85
2021/09/25 00:50:20;;;;;;;9.93;9.02;;;;;;;16.91;66.40;100089.94;4859804;28;101127;-84
2021/09/25 00:52:45;;;;;;;9.25;8.35;;;;;;;16.80;66.79;100087.13;4878231;28;96642;-84
2021/09/25 00:55:12;;;;;;;9.23;7.88;;;;;;;16.77;66.75;100079.38;4889170;28;96836;-83
2021/09/25 00:57:38;;;;;;;10.32;8.30;;;;;;;16.86;66.05;100088.53;4864528;28;100576;-83
2021/09/25 01:00:06;;;;;;;9.43;8.63;;;;;;;16.92;66.42;100091.66;4877904;28;98498;-84
2021/09/25 01:02:35;;;;;;;11.40;9.38;;;;;;;16.98;66.01;100095.69;4891344;28;97217;-83
2021/09/25 01:05:02;;;;;;;9.02;8.30;;;;;;;16.96;65.83;100094.97;4893029;28;97355;-84
2021/09/25 01:07:27;;;;;;;10.18;9.18;;;;;;;16.92;66.12;100094.28;4876208;28;101502;-84
2021/09/25 01:09:54;;;;;;;9.88;9.07;;;;;;;16.87;65.99;100093.75;4892635;28;98474;-84
2021/09/25 01:12:19;;;;;;;10.32;9.10;;;;;;;16.91;65.94;100097.91;4877452;28;96736;-84
2021/09/25 01:14:45;;;;;;;10.98;9.20;;;;;;;16.86;66.39;100088.53;4894269;28;97278;-84
2021/09/25 01:17:12;;;;;;;9.88;8.98;;;;;;;16.92;65.86;100096.94;4893483;28;97014;-84
2021/09/25 01:19:40;;;;;;;10.77;9.07;;;;;;;16.88;66.39;100092.81;4877488;28;101431;-84
2021/09/25 01:22:06;;;;;;;10.02;9.00;;;;;;;16.93;65.99;100095.16;4859686;28;96813;-84
2021/09/25 01:24:34;;;;;;;9.38;8.57;;;;;;;16.92;65.83;100099.59;4882151;28;97223;-84
2021/09/25 01:26:59;;;;;;;8.77;8.07;;;;;;;16.90;66.20;100103.28;4877040;28;101159;-84
2021/09/25 01:29:26;;;;;;;9.23;8.50;;;;;;;17.03;65.58;100096.28;4889305;28;99376;-84
2021/09/25 01:31:52;;;;;;;9.80;8.90;;;;;;;16.98;65.78;100101.00;4881265;28;97248;-84
2021/09/25 01:34:17;;;;;;;9.55;8.75;;;;;;;16.94;65.88;100099.50;4877889;28;96846;-83
2021/09/25 01:36:43;;;;;;;9.43;8.48;;;;;;;16.95;65.74;100095.91;4875286;28;98047;-84
2021/09/25 01:39:09;;;;;;;8.95;8.05;;;;;;;16.97;65.57;100100.16;4880630;28;101205;-84
2021/09/25 01:41:34;;;;;;;9.10;8.32;;;;;;;17.01;65.77;100098.16;4896728;28;96719;-84
2021/09/25 01:44:00;;;;;;;9.27;8.38;;;;;;;17.00;65.71;100095.63;4880253;28;96927;-84
2021/09/25 01:46:25;;;;;;;11.43;8.63;;;;;;;16.98;65.78;100099.19;4896497;28;98045;-84
2021/09/25 01:48:51;;;;;;;9.93;9.00;;;;;;;16.97;65.79;100101.97;4880432;28;100074;-84
2021/09/25 01:51:17;;;;;;;10.30;9.15;;;;;;;17.00;65.84;100100.94;4864648;28;97359;-83
2021/09/25 01:53:42;;;;;;;9.13;8.43;;;;;;;16.93;65.75;100096.03;4879918;28;96925;-84
2021/09/25 01:56:10;;;;;;;12.80;8.32;;;;;;;16.99;66.13;100092.13;4873318;28;101180;-84
2021/09/25 01:58:36;;;;;;;8.70;7.88;;;;;;;16.97;66.07;100092.22;4896067;28;97844;-84
2021/09/25 02:01:03;;;;;;;9.70;8.90;;;;;;;16.91;66.15;100089.09;4880154;28;97471;-84
2021/09/25 02:03:28;;;;;;;10.02;8.20;;;;;;;16.95;66.17;100086.13;4892841;28;96988;-84
2021/09/25 02:05:54;;;;;;;9.20;8.40;;;;;;;16.93;65.79;100084.56;4877770;28;100280;-84
2021/09/25 02:08:20;;;;;;;10.15;8.98;;;;;;;16.97;66.20;100091.38;4864145;28;101596;-84
2021/09/25 02:10:45;;;;;;;11.98;8.55;;;;;;;17.04;66.04;100086.50;4879976;28;96799;-84
2021/09/25 02:13:11;;;;;;;9.82;9.02;;;;;;;16.93;65.69;100074.81;4895104;28;96881;-83
2021/09/25 02:15:36;;;;;;;10.35;9.45;;;;;;;17.00;65.79;100085.00;4878439;28;101484;-84
2021/09/25 02:18:02;;;;;;;9.50;8.70;;;;;;;16.97;66.12;100078.94;4863773;28;101418;-83
2021/09/25 02:20:28;;;;;;;9.57;8.68;;;;;;;16.98;66.01;100079.78;4867111;28;96771;-84
2021/09/25 02:22:53;;;;;;;9.68;8.70;;;;;;;16.98;65.92;100087.75;4870800;28;96720;-84
2021/09/25 02:25:19;;;;;;;9.57;8.77;;;;;;;17.00;66.29;100088.50;4879579;28;101400;-84
2021/09/25 02:27:49;;;;;;;9.65;8.77;;;;;;;17.03;66.09;100090.97;4896327;28;97662;-84
2021/09/25 02:30:16;;;;;;;9.43;8.60;;;;;;;17.02;66.30;100094.56;4873001;28;96712;-84
2021/09/25 02:32:42;;;;;;;10.18;8.98;;;;;;;17.03;66.31;100100.72;4879220;28;97557;-84
2021/09/25 02:35:10;;;;;;;9.93;8.70;;;;;;;17.01;66.28;100092.00;4874476;28;101332;-84
2021/09/25 02:37:35;;;;;;;10.25;9.35;;;;;;;16.99;66.29;100094.78;4876994;28;97136;-84
2021/09/25 02:40:01;;;;;;;9.05;8.25;;;;;;;16.97;66.29;100097.50;4878732;28;96668;-84
2021/09/25 02:42:26;;;;;;;9.68;8.85;;;;;;;16.96;66.56;100100.28;4896022;28;97224;-84
2021/09/25 02:44:55;;;;;;;9.15;8.45;;;;;;;16.96;66.60;100102.94;4895176;28;98636;-84
2021/09/25 02:47:20;;;;;;;9.32;8.55;;;;;;;17.00;66.35;100098.28;4863870;28;101084;-83
2021/09/25 02:49:46;;;;;;;9.60;8.80;;;;;;;17.10;65.66;100102.88;4863900;28;96808;-84
2021/09/25 02:52:15;;;;;;;9.90;9.10;;;;;;;17.03;65.85;100106.88;4895902;28;96846;-84
2021/09/25 02:54:41;;;;;;;10.38;8.50;;;;;;;16.95;65.84;100107.34;4894641;28;101457;-84
2021/09/25 02:57:06;;;;;;;9.80;8.73;;;;;;;16.98;66.18;100104.50;4895065;28;97484;-84
2021/09/25 02:59:32;;;;;;;9.80;9.00;;;;;;;17.00;66.06;100103.56;4863583;28;96862;-83
2021/09/25 03:01:58;;;;;;;9.30;8.60;;;;;;;16.96;66.31;100103.78;4888223;28;97856;-85
2021/09/25 03:04:23;;;;;;;9.93;8.93;;;;;;;17.08;66.02;100109.25;4863215;28;101734;-84
2021/09/25 03:06:49;;;;;;;9.20;8.35;;;;;;;16.99;66.19;100108.03;4879651;28;101354;-83
2021/09/25 03:09:15;;;;;;;8.65;7.85;;;;;;;16.95;66.21;100114.47;4879043;28;97081;-84
2021/09/25 03:11:40;;;;;;;10.13;9.10;;;;;;;16.94;66.36;100118.06;4888666;28;96921;-83
2021/09/25 03:14:06;;;;;;;9.65;8.75;;;;;;;16.93;66.37;100113.72;4889975;28;100447;-82
2021/09/25 03:16:32;;;;;;;9.98;9.00;;;;;;;17.10;65.96;100120.56;4895769;28;97999;-84
2021/09/25 03:18:58;;;;;;;10.30;9.35;;;;;;;17.01;66.09;100116.72;4895782;28;97265;-82
2021/09/25 03:21:24;;;;;;;10.45;8.93;;;;;;;16.88;66.65;100121.13;4876140;28;96867;-83
2021/09/25 03:23:49;;;;;;;9.63;8.70;;;;;;;17.00;66.29;100125.63;4858778;28;101601;-83
2021/09/25 03:26:15;;;;;;;10.43;9.50;;;;;;;17.01;66.34;100119.38;4889835;28;98400;-83
2021/09/25 03:28:41;;;;;;;10.07;9.18;;;;;;;16.97;66.43;100115.22;4876999;28;96838;-84
2021/09/25 03:31:06;;;;;;;9.45;8.65;;;;;;;16.88;66.57;100111.34;4884783;28;96964;-84
2021/09/25 03:33:32;;;;;;;10.02;9.15;;;;;;;16.95;66.79;100119.75;4893451;28;98288;-84
2021/09/25 03:35:57;;;;;;;9.13;8.32;;;;;;;16.94;66.29;100118.91;4852875;28;100644;-82
2021/09/25 03:38:24;;;;;;;10.32;9.32;;;;;;;16.87;66.67;100120.28;4862786;28;96917;-84
2021/09/25 03:40:50;;;;;;;9.85;8.95;;;;;;;17.04;66.27;100128.94;4880006;28;96974;-84
2021/09/25 03:43:18;;;;;;;9.70;8.80;;;;;;;16.93;66.54;100122.53;4877697;28;101561;-84
2021/09/25 03:45:44;;;;;;;9.63;8.63;;;;;;;16.87;66.35;100119.41;4895006;28;97415;-83
2021/09/25 03:48:09;;;;;;;10.00;8.98;;;;;;;16.93;66.98;100133.13;4862323;28;97788;-83
2021/09/25 03:50:35;;;;;;;10.00;9.10;;;;;;;16.90;66.78;100116.53;4863154;28;96956;-82
2021/09/25 03:53:02;;;;;;;10.30;9.32;;;;;;;16.94;66.54;100124.22;4893743;28;98164;-84
2021/09/25 03:55:27;;;;;;;10.48;9.57;;;;;;;16.91;66.73;100128.88;4869766;28;98009;-83
2021/09/25 03:57:53;;;;;;;10.27;9.38;;;;;;;16.99;66.59;100129.25;4879012;28;96869;-84
2021/09/25 04:00:19;;;;;;;10.63;9.73;;;;;;;16.93;67.00;100126.97;4886897;28;96983;-83
2021/09/25 04:02:45;;;;;;;11.35;10.20;;;;;;;16.92;66.49;100125.25;4855785;28;101298;-83
2021/09/25 04:05:11;;;;;;;10.95;9.98;;;;;;;16.89;66.64;100130.75;4894393;28;98058;-83
2021/09/25 04:07:37;;;;;;;11.73;10.73;;;;;;;16.91;66.83;100126.22;4877841;28;97490;-83
2021/09/25 04:10:04;;;;;;;11.07;10.00;;;;;;;16.89;66.65;100125.47;4878419;28;97249;-84
2021/09/25 04:12:30;;;;;;;11.57;10.68;;;;;;;16.94;66.76;100128.69;4880355;28;101710;-83
2021/09/25 04:14:58;;;;;;;9.88;9.07;;;;;;;16.91;67.15;100129.72;4875491;28;101220;-83
2021/09/25 04:17:23;;;;;;;11.10;10.00;;;;;;;16.87;66.67;100128.22;4875874;28;96878;-84
2021/09/25 04:19:49;;;;;;;11.00;10.02;;;;;;;16.93;66.58;100137.59;4859887;28;97022;-83
2021/09/25 04:22:15;;;;;;;10.85;9.93;;;;;;;16.97;66.70;100123.19;4857953;28;101536;-84
2021/09/25 04:24:42;;;;;;;10.32;9.50;;;;;;;16.90;66.75;100124.50;4861860;28;101399;-83
2021/09/25 04:27:08;;;;;;;10.73;9.57;;;;;;;16.90;66.84;100125.38;4877937;28;97159;-84
2021/09/25 04:29:33;;;;;;;11.80;10.73;;;;;;;16.92;66.81;100127.91;4876461;28;97159;-83
2021/09/25 04:31:59;;;;;;;10.88;9.88;;;;;;;16.88;67.17;100131.72;4877352;28;101715;-83
2021/09/25 04:34:25;;;;;;;12.55;11.48;;;;;;;16.99;66.76;100129.25;4877372;28;101406;-83
2021/09/25 04:36:50;;;;;;;10.75;9.95;;;;;;;17.01;66.74;100132.63;4889511;28;97878;-84
2021/09/25 04:39:16;;;;;;;15.90;11.50;;;;;;;16.90;66.91;100133.34;4878169;28;98276;-83
2021/09/25 04:41:41;;;;;;;12.07;10.88;;;;;;;16.96;66.89;100137.41;4861706;28;100677;-83
2021/09/25 04:44:07;;;;;;;11.50;10.52;;;;;;;17.00;66.78;100132.75;4877083;28;99794;-83
2021/09/25 04:46:32;;;;;;;11.60;10.55;;;;;;;16.91;66.72;100142.97;4876381;28;96733;-83
2021/09/25 04:48:58;;;;;;;11.05;10.18;;;;;;;16.90;67.26;100138.63;4867882;28;96898;-83
2021/09/25 04:51:24;;;;;;;11.75;10.85;;;;;;;16.88;67.20;100135.22;4877670;28;98205;-84
2021/09/25 04:53:49;;;;;;;13.68;12.48;;;;;;;16.90;67.27;100137.75;4888309;28;98058;-83
2021/09/25 04:56:15;;;;;;;12.13;11.13;;;;;;;16.89;67.25;100138.72;4877329;28;96795;-83
2021/09/25 04:58:41;;;;;;;12.27;11.32;;;;;;;16.90;67.23;100143.94;4894101;28;96904;-82
2021/09/25 05:01:07;;;;;;;11.77;10.88;;;;;;;16.92;67.23;100139.38;4863103;28;100194;-83
2021/09/25 05:03:33;;;;;;;12.70;11.73;;;;;;;16.94;67.12;100136.63;4894390;28;98052;-83
2021/09/25 05:05:59;;;;;;;12.68;11.68;;;;;;;16.93;66.84;100140.25;4877347;28;96753;-83
2021/09/25 05:08:25;;;;;;;12.93;11.63;;;;;;;17.01;66.99;100142.38;4897490;28;97095;-83
2021/09/25 05:10:50;;;;;;;12.55;11.55;;;;;;;16.98;67.01;100146.06;4881508;28;101356;-83
2021/09/25 05:13:16;;;;;;;11.88;10.88;;;;;;;17.00;66.56;100140.69;4879400;28;101169;-84
2021/09/25 05:15:41;;;;;;;11.25;10.45;;;;;;;16.97;67.06;100147.88;4881021;28;96709;-83
2021/09/25 05:18:07;;;;;;;13.23;12.13;;;;;;;16.97;66.84;100144.38;4880843;28;96876;-83
2021/09/25 05:20:32;;;;;;;12.13;11.02;;;;;;;17.00;66.88;100149.50;4865200;28;100300;-83
2021/09/25 05:22:58;;;;;;;12.70;11.52;;;;;;;17.02;66.96;100152.06;4874011;28;101341;-83
2021/09/25 05:25:24;;;;;;;11.50;10.50;;;;;;;17.02;67.03;100147.59;4896480;28;98839;-83
2021/09/25 05:27:49;;;;;;;10.88;10.02;;;;;;;17.01;67.04;100150.34;4897380;28;97094;-83
2021/09/25 05:30:15;;;;;;;12.05;11.15;;;;;;;17.04;67.18;100151.00;4864200;28;101242;-83
2021/09/25 05:32:41;;;;;;;12.57;11.57;;;;;;;17.14;66.84;100146.81;4880402;28;101076;-83
2021/09/25 05:35:07;;;;;;;12.20;11.10;;;;;;;17.14;66.61;100162.72;4896486;28;97426;-84
2021/09/25 05:37:33;;;;;;;12.63;11.43;;;;;;;17.14;66.78;100159.22;4881181;28;96956;-83
2021/09/25 05:39:59;;;;;;;12.32;11.13;;;;;;;17.12;66.74;100161.13;4879746;28;98082;-83
2021/09/25 05:42:25;;;;;;;13.77;12.50;;;;;;;17.12;67.12;100169.06;4880164;28;100028;-83
2021/09/25 05:44:51;;;;;;;12.80;11.60;;;;;;;17.14;66.75;100165.38;4869254;28;97366;-84
2021/09/25 05:47:17;;;;;;;13.77;12.57;;;;;;;17.12;67.05;100171.72;4877564;28;96967;-84
2021/09/25 05:49:44;;;;;;;13.43;12.02;;;;;;;17.19;66.40;100163.28;4878162;28;100646;-84
2021/09/25 05:52:10;;;;;;;13.55;12.45;;;;;;;17.20;66.76;100172.09;4876559;28;101562;-83
2021/09/25 05:54:37;;;;;;;12.82;11.63;;;;;;;17.27;66.64;100173.41;4878951;28;96802;-84
2021/09/25 05:57:03;;;;;;;12.50;11.43;;;;;;;17.28;66.73;100175.13;4876913;28;96912;-84
2021/09/25 05:59:29;;;;;;;12.40;11.20;;;;;;;17.30;66.47;100170.53;4862898;28;101221;-83
2021/09/25 06:01:54;;;;;;;10.77;9.98;;;;;;;17.35;66.67;100172.91;4876904;28;98029;-83
2021/09/25 06:04:20;;;;;;;12.90;11.82;;;;;;;17.36;66.42;100169.31;4877236;28;96818;-84
2021/09/25 06:06:45;;;;;;;14.00;12.80;;;;;;;17.41;66.49;100168.06;4878173;28;97824;-84
2021/09/25 06:09:11;;;;;;;14.18;12.55;;;;;;;17.43;66.32;100173.28;4876405;28;101769;-82
2021/09/25 06:11:36;;;;;;;13.60;12.25;;;;;;;17.53;66.18;100168.22;4876917;28;97902;-83
2021/09/25 06:14:02;;;;;;;11.82;10.90;;;;;;;17.51;66.00;100181.59;4860735;28;97498;-83
2021/09/25 06:16:27;;;;;;;12.18;11.18;;;;;;;17.57;66.24;100181.19;4877158;28;96949;-84
2021/09/25 06:18:53;;;;;;;12.77;11.60;;;;;;;17.51;66.30;100189.56;4878313;28;101598;-84
2021/09/25 06:21:18;;;;;;;12.27;11.20;;;;;;;17.57;66.41;100193.59;4862372;28;101908;-84
2021/09/25 06:23:46;;;;;;;12.88;11.10;;;;;;;17.59;66.43;100189.88;4877874;28;96799;-84
2021/09/25 06:26:12;;;;;;;12.30;11.10;;;;;;;17.63;66.29;100183.44;4877914;28;97484;-84
2021/09/25 06:28:37;;;;;;;12.32;11.23;;;;;;;17.61;66.06;100180.03;4861157;28;101445;-84
2021/09/25 06:31:03;;;;;;;12.70;11.68;;;;;;;17.68;66.21;100190.25;4877741;28;96829;-85
2021/09/25 06:33:29;;;;;;;11.77;10.75;;;;;;;17.75;65.82;100194.22;4878137;28;97274;-84
2021/09/25 06:35:55;;;;;;;11.75;10.85;;;;;;;17.77;65.93;100194.94;4893788;28;97398;-84
2021/09/25 06:38:21;;;;;;;11.85;10.68;;;;;;;17.71;65.99;100182.06;4888250;28;101434;-83
2021/09/25 06:40:46;;;;;;;12.55;11.20;;;;;;;17.80;65.96;100190.34;4893974;28;97439;-83
2021/09/25 06:43:12;;;;;;;12.43;11.38;;;;;;;17.80;65.32;100194.78;4876256;28;96738;-83
2021/09/25 06:45:39;;;;;;;12.63;11.57;;;;;;;17.81;65.74;100194.69;4860326;28;96945;-85
2021/09/25 06:48:05;;;;;;;12.82;11.55;;;;;;;17.84;65.59;100194.47;4893312;28;97524;-86
2021/09/25 06:50:31;;;;;;;12.30;11.30;;;;;;;17.82;65.83;100192.88;4876622;28;101089;-86
2021/09/25 06:52:56;;;;;;;11.50;10.50;;;;;;;17.82;66.01;100196.38;4861856;28;97453;-85
2021/09/25 06:55:22;;;;;;;12.88;11.77;;;;;;;17.82;65.69;100190.22;4877915;28;96928;-85
2021/09/25 06:57:48;;;;;;;12.75;11.60;;;;;;;17.82;66.09;100196.38;4868543;28;101582;-87
2021/09/25 07:00:14;;;;;;;13.15;12.05;;;;;;;17.82;66.04;100196.38;4860655;28;99756;-88
2021/09/25 07:02:39;;;;;;;13.45;12.25;;;;;;;17.85;66.00;100193.50;4875584;28;97238;-87
2021/09/25 07:05:07;;;;;;;13.52;12.23;;;;;;;17.95;65.57;100206.16;4875669;28;96912;-86
2021/09/25 07:07:33;;;;;;;12.90;11.85;;;;;;;17.88;65.88;100200.44;4877431;28;100215;-86
2021/09/25 07:09:58;;;;;;;12.63;11.43;;;;;;;17.85;66.16;100204.13;4876341;28;98701;-88
2021/09/25 07:12:25;;;;;;;12.02;10.82;;;;;;;17.85;66.01;100208.59;4846926;28;97335;-87
2021/09/25 07:14:51;;;;;;;11.73;10.65;;;;;;;17.90;65.89;100206.50;4880225;28;97058;-87
2021/09/25 07:17:17;;;;;;;11.32;10.40;;;;;;;17.93;66.12;100214.25;4877457;28;101541;-86
2021/09/25 07:19:43;;;;;;;12.20;11.18;;;;;;;17.94;65.97;100218.59;4858591;28;101075;-87
2021/09/25 07:22:08;;;;;;;11.00;10.10;;;;;;;17.97;66.13;100209.59;4860046;28;96798;-87
2021/09/25 07:24:37;;;;;;;12.02;10.85;;;;;;;17.99;65.99;100215.66;4865435;28;97787;-86
2021/09/25 07:27:06;;;;;;;12.85;11.38;;;;;;;18.05;66.15;100217.91;4867045;28;98679;-87
2021/09/25 07:29:31;;;;;;;11.68;10.60;;;;;;;18.08;65.88;100223.00;4869346;28;101430;-84
2021/09/25 07:31:57;;;;;;;10.77;9.98;;;;;;;18.07;65.89;100214.19;4858743;28;97460;-84
2021/09/25 07:34:22;;;;;;;11.60;10.60;;;;;;;18.14;65.68;100221.75;4875709;28;96857;-84
2021/09/25 07:36:48;;;;;;;11.25;10.35;;;;;;;18.15;65.83;100224.31;4862367;28;100473;-85
2021/09/25 07:39:13;;;;;;;12.23;10.82;;;;;;;18.18;65.79;100218.78;4859106;28;101285;-89
2021/09/25 07:41:39;;;;;;;11.73;10.70;;;;;;;18.24;65.35;100221.03;4881566;28;97416;-84
2021/09/25 07:44:05;;;;;;;11.27;10.18;;;;;;;18.27;65.47;100217.31;4894081;28;97678;-81
2021/09/25 07:46:31;;;;;;;11.35;10.45;;;;;;;18.38;65.00;100222.72;4894026;28;98435;-81
2021/09/25 07:48:59;;;;;;;11.73;10.70;;;;;;;18.44;65.02;100222.34;4874134;28;98007;-82
2021/09/25 07:51:28;;;;;;;11.43;10.55;;;;;;;18.45;64.88;100226.69;4876330;28;97029;-88
2021/09/25 07:53:54;;;;;;;10.98;10.00;;;;;;;18.45;65.04;100229.34;4874645;28;97643;-84
2021/09/25 07:56:21;;;;;;;12.32;11.27;;;;;;;18.48;65.03;100233.59;4878274;28;98159;-88
2021/09/25 07:58:47;;;;;;;11.80;10.73;;;;;;;18.48;64.95;100231.78;4859625;28;100158;-86
2021/09/25 08:01:12;;;;;;;11.68;10.63;;;;;;;18.59;64.75;100230.19;4869072;28;97384;-88
2021/09/25 08:03:38;;;;;;;12.00;10.95;;;;;;;18.58;64.81;100234.66;4862591;28;97588;-89
2021/09/25 08:06:06;;;;;;;12.57;11.38;;;;;;;18.66;64.24;100239.47;4865507;28;97309;-87
2021/09/25 08:08:31;;;;;;;11.55;10.57;;;;;;;18.66;64.39;100231.50;4880617;28;98495;-86
2021/09/25 08:10:57;;;;;;;13.15;10.95;;;;;;;18.66;64.44;100226.16;4873950;28;96825;-87
2021/09/25 08:13:23;;;;;;;11.57;10.50;;;;;;;18.72;63.86;100231.06;4877680;28;96880;-86
2021/09/25 08:15:49;;;;;;;12.13;11.02;;;;;;;18.76;63.88;100230.78;4872028;28;101535;-87
2021/09/25 08:18:15;;;;;;;13.07;10.30;;;;;;;18.81;63.82;100230.44;4869519;28;101378;-86
2021/09/25 08:20:41;;;;;;;11.50;10.38;;;;;;;18.95;63.10;100224.16;4892909;28;96834;-85
2021/09/25 08:23:08;;;;;;;12.65;11.27;;;;;;;18.96;63.58;100233.84;4881205;28;96815;-85
2021/09/25 08:25:33;;;;;;;12.05;10.82;;;;;;;19.04;63.18;100234.16;4860451;28;100306;-85
2021/09/25 08:27:59;;;;;;;11.80;10.32;;;;;;;19.11;63.05;100227.47;4875273;28;97798;-85
2021/09/25 08:30:25;;;;;;;11.52;10.52;;;;;;;19.24;62.59;100227.41;4873729;28;97747;-84
2021/09/25 08:32:52;;;;;;;11.15;10.15;;;;;;;19.47;62.17;100233.75;4865308;28;96915;-83
2021/09/25 08:35:18;;;;;;;10.90;9.88;;;;;;;19.57;62.11;100239.25;4888313;28;101841;-82
2021/09/25 08:37:44;;;;;;;10.77;9.88;;;;;;;19.61;61.71;100238.94;4851391;28;100076;-82
2021/09/25 08:40:11;;;;;;;10.23;9.07;;;;;;;19.63;61.65;100245.00;4869135;28;97857;-82
2021/09/25 08:42:37;;;;;;;12.77;8.55;;;;;;;19.76;61.09;100239.66;4869335;28;97455;-84
2021/09/25 08:45:04;;;;;;;10.90;10.10;;;;;;;19.84;61.01;100242.59;4872590;28;101447;-85
2021/09/25 08:47:30;;;;;;;10.60;9.60;;;;;;;19.95;60.66;100240.94;4890386;28;98128;-83
2021/09/25 08:49:55;;;;;;;10.25;9.23;;;;;;;20.24;59.88;100244.06;4874606;28;96926;-82
2021/09/25 08:52:21;;;;;;;9.55;8.65;;;;;;;20.60;58.71;100242.28;4856359;28;96925;-82
2021/09/25 08:54:46;;;;;;;10.00;9.00;;;;;;;20.88;58.24;100230.31;4859586;28;101942;-82
2021/09/25 08:57:12;;;;;;;10.02;9.18;;;;;;;21.00;57.77;100229.34;4873690;28;97884;-83
2021/09/25 08:59:38;;;;;;;10.52;9.50;;;;;;;21.21;57.46;100243.66;4857809;28;97482;-83
2021/09/25 09:02:17;;;;;;;9.70;8.90;;;;;;;21.45;56.74;100234.69;4892677;28;97235;-82
2021/09/25 09:04:54;;;;;;;13.95;9.45;;;;;;;21.63;55.92;100243.84;4875810;28;101639;-83
2021/09/25 09:07:26;;;;;;;11.18;9.70;;;;;;;21.67;55.86;100249.78;4891883;28;97898;-83
2021/09/25 09:09:52;;;;;;;9.82;8.90;;;;;;;21.85;55.31;100236.78;4857964;28;97481;-83
2021/09/25 09:12:23;;;;;;;10.68;9.43;;;;;;;21.90;54.85;100240.78;4859076;28;96740;-82
2021/09/25 09:14:49;;;;;;;9.75;8.85;;;;;;;21.92;55.08;100238.78;4892284;28;98327;-82
2021/09/25 09:17:27;;;;;;;10.88;9.18;;;;;;;21.90;55.19;100240.78;4875288;28;101607;-82
2021/09/25 09:19:54;;;;;;;10.15;9.23;;;;;;;22.00;55.12;100246.19;4879164;28;97130;-81
2021/09/25 09:22:22;;;;;;;10.27;9.48;;;;;;;22.25;54.25;100252.19;4867638;28;96931;-82
2021/09/25 09:24:50;;;;;;;10.85;9.90;;;;;;;22.32;53.30;100250.69;4884267;28;98079;-84
2021/09/25 09:27:18;;;;;;;10.43;9.48;;;;;;;22.42;52.96;100240.91;4892138;28;96773;-82
2021/09/25 09:29:44;;;;;;;9.75;8.82;;;;;;;22.37;52.25;100252.00;4849475;28;98070;-82
2021/09/25 09:32:14;;;;;;;9.43;8.80;;;;;;;22.38;52.75;100248.34;4854452;28;96948;-82
2021/09/25 09:34:41;;;;;;;10.10;9.30;;;;;;;22.39;52.91;100257.22;4886224;28;98099;-83
2021/09/25 09:37:18;;;;;;;11.45;8.35;;;;;;;22.59;52.40;100255.53;4850129;28;100170;-83
2021/09/25 09:39:45;;;;;;;9.40;8.60;;;;;;;22.57;52.81;100257.47;4875247;28;97891;-82
2021/09/25 09:42:11;;;;;;;9.30;8.40;;;;;;;22.41;52.76;100265.13;4873045;28;97044;-83
2021/09/25 09:44:38;;;;;;;10.05;9.25;;;;;;;22.28;52.56;100263.47;4890354;28;98164;-82
2021/09/25 09:47:08;;;;;;;9.57;8.77;;;;;;;22.17;52.77;100266.19;4866848;28;97653;-84
2021/09/25 09:49:41;;;;;;;9.50;8.70;;;;;;;22.09;52.89;100266.81;4874614;28;96884;-82
2021/09/25 09:52:09;;;;;;;9.80;8.98;;;;;;;22.07;53.32;100266.06;4895530;28;97359;-82
2021/09/25 09:54:39;;;;;;;9.43;8.57;;;;;;;22.05;53.26;100268.03;4894622;28;97934;-82
2021/09/25 09:57:09;;;;;;;9.00;8.30;;;;;;;22.05;53.17;100269.84;4894662;28;97468;-83
2021/09/25 09:59:36;;;;;;;9.23;8.43;;;;;;;22.15;53.28;100276.97;4891397;28;97275;-82
2021/09/25 10:02:01;;;;;;;9.88;9.05;;;;;;;22.22;53.27;100276.50;4862235;28;96993;-83
2021/09/25 10:04:27;;;;;;;10.95;9.95;;;;;;;22.18;53.26;100275.06;4875082;28;98018;-82
2021/09/25 10:06:53;;;;;;;10.15;9.40;;;;;;;22.15;53.12;100274.31;4880656;28;98858;-82
2021/09/25 10:09:21;;;;;;;10.23;9.35;;;;;;;22.14;53.30;100274.44;4874250;28;97115;-82
2021/09/25 10:11:50;;;;;;;11.32;10.40;;;;;;;22.25;53.41;100273.56;4878933;28;97278;-82
2021/09/25 10:14:27;;;;;;;10.82;9.70;;;;;;;22.10;53.18;100267.63;4882015;28;97425;-82
2021/09/25 10:16:54;;;;;;;10.27;9.57;;;;;;;22.12;52.90;100279.06;4875358;28;98059;-82
2021/09/25 10:19:23;;;;;;;10.55;9.40;;;;;;;22.19;53.40;100269.56;4875431;28;96776;-87
2021/09/25 10:21:55;;;;;;;10.55;9.65;;;;;;;22.25;52.95;100281.59;4850559;28;97381;-84
2021/09/25 10:24:29;;;;;;;11.07;10.07;;;;;;;22.06;53.05;100275.06;4878964;28;97560;-92
2021/09/25 10:26:55;;;;;;;9.98;8.93;;;;;;;22.02;53.01;100280.78;4875500;28;101321;-92
2021/09/25 10:29:23;;;;;;;10.25;9.27;;;;;;;21.94;52.83;100284.09;4878238;28;96802;-92
2021/09/25 10:31:49;;;;;;;9.75;8.93;;;;;;;21.99;52.58;100289.94;4872421;28;97272;-92
2021/09/25 10:34:15;;;;;;;9.02;8.32;;;;;;;21.88;52.78;100287.28;4893720;28;98441;-84
2021/09/25 10:36:42;;;;;;;10.25;9.27;;;;;;;21.83;52.69;100284.97;4894936;28;97931;-84
2021/09/25 10:39:39;;;;;;;9.80;9.07;;;;;;;21.87;52.37;100283.75;4894289;28;96845;-84
2021/09/25 10:42:13;;;;;;;9.70;8.82;;;;;;;21.96;52.34;100275.94;4895513;28;96801;-84
2021/09/25 10:44:45;;;;;;;9.95;9.13;;;;;;;22.00;52.09;100272.06;4877797;28;101797;-84
2021/09/25 10:47:15;;;;;;;9.60;8.65;;;;;;;22.13;52.14;100273.56;4893450;28;97375;-82
2021/09/25 10:49:43;;;;;;;10.32;9.50;;;;;;;22.15;52.42;100286.81;4873930;28;98149;-84
2021/09/25 10:52:09;;;;;;;10.40;9.60;;;;;;;22.21;52.53;100285.50;4873258;28;97113;-86
2021/09/25 10:54:35;;;;;;;9.70;8.90;;;;;;;22.23;52.26;100278.22;4862360;28;100097;-85
2021/09/25 10:57:02;;;;;;;10.70;9.70;;;;;;;22.36;52.28;100293.06;4875480;28;98598;-85
2021/09/25 10:59:28;;;;;;;10.70;9.80;;;;;;;22.45;52.11;100290.59;4864043;28;96934;-84
2021/09/25 11:01:54;;;;;;;9.93;9.02;;;;;;;22.65;51.17;100287.09;4887726;28;97439;-87
2021/09/25 11:04:21;;;;;;;9.25;8.65;;;;;;;22.81;51.26;100281.31;4871877;28;101599;-87
2021/09/25 11:06:52;;;;;;;9.30;8.60;;;;;;;22.95;50.86;100280.13;4876413;28;101586;-84
2021/09/25 11:09:28;;;;;;;10.10;9.07;;;;;;;23.03;50.30;100275.78;4878648;28;97523;-83
2021/09/25 11:11:55;;;;;;;10.38;9.57;;;;;;;23.19;50.68;100287.88;4881765;28;97515;-83